Capitol Logistics 1134


EDDM
Franz Josef Strauss International Airport
Munich, DE
EBLG
Liège Airport
Liege, BE

Activity Log

Date Flight Route Aircraft Duration
11/12/2019 CPX734 INPU3E INPUD Y102 UPALA UL610 BATTY T855 LNO LNO4X B738 1h 05m
10/31/2019 CPX734 Not Available B738 1h 17m

Route Details

Aircraft Information
Primary: Boeing 737-800BCF
Backup: Not Available
Route Data
Distance: 282nm
Sched. Duration: 1h 05m
Avg. Duration: 1h 11m (+7m)
Times Flown: 2
Recm'd Route: Not Available
Planned Altitude: 34,000ft
Origin Wx: EDDM 231250Z 25029G39KT CAVOK 13/04 Q1018 NOSIG
Dest. Wx: EBLG 231250Z 23028G40KT 9999 SCT011 BKN013 11/10 Q1013 TEMPO 3000 -DZ BKN009
Notes:

Financial History
Total Freight: 89,760lbs
Average Load: 44,880lbs/flt
Fuel Used: 13,140lbs
Avg. Fuel Used: 6,570lbs/flt
Fuel Expense: $10,512
Avg. Fuel Expense: $5,256
Avg. Fuel Cost: $0.80/lbs
Total Gross Income: $187,862
Pilot Pay: $458
Total Expenses: $20,393
Total Revenue: $156,398
Average Revenue: $93,931.20